Meteorología y climatología de Navarra
Datos de la estación - Meteo Navarra

Estación de Tafalla GN

Altitud 430 m.


Datos desde el 11/01/2019 hasta el 12/01/2019 en horario solar
Los datos son PROVISIONALES

Anterior Página 1 de 1 Siguiente Descargar: Formato para Excel 2000 o superior   Formato csv   Formato para OpenOffice Calc
Fecha Temperatura Humedad relativa Radiación global Insolación Precipitación Vel. viento 10 m Vel. viento 10 m Dir. viento 10 m
ºC % W/m² s l/m² m/s km/h º
11/01/2019 0:00 0.1 65 0.0 0 0.0 4.2 15.2 266
11/01/2019 0:10 0.1 65 0.0 0 0.0 5.0 18.1 250
11/01/2019 0:20 0.2 65 0.0 0 0.0 5.4 19.4 249
11/01/2019 0:30 0.3 65 0.0 0 0.0 4.7 17.0 259
11/01/2019 0:40 0.4 64 0.0 0 0.0 3.5 12.7 265
11/01/2019 0:50 0.4 64 0.0 0 0.0 4.4 15.9 271
11/01/2019 1:00 0.5 64 0.0 0 0.0 4.0 14.3 267
11/01/2019 1:10 0.5 64 0.0 0 0.0 4.2 15.2 287
11/01/2019 1:20 0.6 65 0.0 0 0.0 5.2 18.6 303
11/01/2019 1:30 0.6 65 0.0 0 0.0 5.2 18.7 310
11/01/2019 1:40 0.5 66 0.0 0 0.0 5.2 18.9 315
11/01/2019 1:50 0.4 66 0.0 0 0.0 5.3 19.0 318
11/01/2019 2:00 0.4 66 0.0 0 0.0 5.7 20.6 323
11/01/2019 2:10 0.3 67 0.0 0 0.0 4.9 17.6 327
11/01/2019 2:20 0.4 66 0.0 0 0.0 6.1 22.1 328
11/01/2019 2:30 0.6 66 0.0 0 0.0 6.3 22.6 333
11/01/2019 2:40 0.6 66 0.0 0 0.0 6.4 23.1 333
11/01/2019 2:50 0.7 66 0.0 0 0.0 7.0 25.2 331
11/01/2019 3:00 0.7 66 0.0 0 0.0 7.1 25.6 330
11/01/2019 3:10 0.5 67 0.0 0 0.0 5.7 20.6 325
11/01/2019 3:20 0.3 69 0.0 0 0.0 4.7 16.8 323
11/01/2019 3:30 0.2 70 0.0 0 0.0 4.6 16.6 323
11/01/2019 3:40 0.2 69 0.0 0 0.0 4.5 16.2 324
11/01/2019 3:50 0.2 67 0.0 0 0.0 5.7 20.6 326
11/01/2019 4:00 0.3 65 0.0 0 0.0 6.0 21.6 325
11/01/2019 4:10 0.3 64 0.0 0 0.0 6.7 23.9 329
11/01/2019 4:20 0.3 63 0.0 0 0.0 6.1 22.1 331
11/01/2019 4:30 0.3 62 0.0 0 0.0 6.6 23.6 333
11/01/2019 4:40 0.2 60 0.0 0 0.0 7.4 26.5 331
11/01/2019 4:50 0.2 60 0.0 0 0.0 6.8 24.5 332
11/01/2019 5:00 0.0 60 0.0 0 0.0 6.9 24.8 331
11/01/2019 5:10 0.1 60 0.0 0 0.0 7.3 26.1 333
11/01/2019 5:20 0.1 60 0.0 0 0.0 7.1 25.7 331
11/01/2019 5:30 0.1 61 0.0 0 0.0 6.8 24.6 329
11/01/2019 5:40 0.1 62 0.0 0 0.0 7.1 25.7 329
11/01/2019 5:50 0.1 63 0.0 0 0.0 7.2 26.0 330
11/01/2019 6:00 0.1 63 0.0 0 0.0 7.3 26.2 328
11/01/2019 6:10 0.0 63 0.0 0 0.0 7.0 25.3 326
11/01/2019 6:20 0.1 64 0.0 0 0.0 7.4 26.6 328
11/01/2019 6:30 0.1 63 0.0 0 0.0 7.7 27.6 328
11/01/2019 6:40 0.2 63 0.0 0 0.0 7.4 26.5 329
11/01/2019 6:50 0.1 63 0.0 0 0.0 7.1 25.6 330
11/01/2019 7:00 0.2 62 0.0 0 0.0 6.8 24.4 334
11/01/2019 7:10 0.2 61 0.0 0 0.0 6.5 23.4 333
11/01/2019 7:20 0.2 61 0.0 0 0.0 6.2 22.5 340
11/01/2019 7:30 0.2 62 0.0 0 0.0 5.8 20.8 341
11/01/2019 7:40 0.2 62 0.0 0 0.0 6.5 23.2 338
11/01/2019 7:50 0.2 62 10.2 0 0.0 7.1 25.6 336
11/01/2019 8:00 0.4 62 30.9 348 0.0 6.8 24.3 335
11/01/2019 8:10 0.4 62 50.9 600 0.0 6.7 24.0 335
11/01/2019 8:20 0.5 61 66.3 564 0.0 6.0 21.6 338
11/01/2019 8:30 0.5 61 70.8 300 0.0 6.5 23.3 332
11/01/2019 8:40 0.8 60 118.7 600 0.0 6.5 23.3 332
11/01/2019 8:50 1.0 59 146.0 600 0.0 6.1 21.8 339
11/01/2019 9:00 1.2 58 170.1 600 0.0 5.8 21.0 336
11/01/2019 9:10 1.4 58 178.2 600 0.0 6.5 23.2 336
11/01/2019 9:20 1.4 59 178.3 600 0.0 6.7 24.0 335
11/01/2019 9:30 1.4 60 182.8 600 0.0 6.2 22.2 335
11/01/2019 9:40 1.5 60 191.6 600 0.0 6.1 22.1 336
11/01/2019 9:50 1.8 60 271.0 600 0.0 6.8 24.5 336
11/01/2019 10:00 2.3 59 310.8 600 0.0 6.2 22.2 341
11/01/2019 10:10 2.6 58 332.3 600 0.0 6.1 22.1 335
11/01/2019 10:20 2.8 57 350.8 600 0.0 6.0 21.5 335
11/01/2019 10:30 3.0 56 370.0 600 0.0 6.3 22.8 337
11/01/2019 10:40 3.2 54 386.8 600 0.0 7.2 25.8 331
11/01/2019 10:50 3.4 53 404.2 600 0.0 6.7 24.1 331
11/01/2019 11:00 3.8 52 420.2 600 0.0 6.5 23.3 337
11/01/2019 11:10 3.8 50 433.0 600 0.0 8.1 29.1 340
11/01/2019 11:20 4.0 49 449.4 600 0.0 7.9 28.4 341
11/01/2019 11:30 4.2 49 325.9 408 0.0 8.0 28.8 337
11/01/2019 11:40 4.2 48 359.3 448 0.0 7.2 25.8 349
11/01/2019 11:50 4.3 48 446.2 594 0.0 7.4 26.6 347
11/01/2019 12:00 4.2 48 172.2 130 0.0 5.9 21.2 346
11/01/2019 12:10 4.1 49 204.3 178 0.0 5.0 18.0 341
11/01/2019 12:20 4.4 48 312.2 364 0.0 4.6 16.4 325
11/01/2019 12:30 4.7 47 327.3 384 0.0 4.9 17.5 326
11/01/2019 12:40 4.9 45 461.7 592 0.0 5.6 20.3 341
11/01/2019 12:50 5.0 44 463.5 600 0.0 5.5 19.7 330
11/01/2019 13:00 5.2 43 452.3 600 0.0 4.7 17.0 335
11/01/2019 13:10 5.3 43 443.4 600 0.0 5.6 20.0 325
11/01/2019 13:20 5.4 42 433.4 600 0.0 5.4 19.3 342
11/01/2019 13:30 5.2 42 423.5 600 0.0 6.6 23.9 334
11/01/2019 13:40 5.4 41 410.2 600 0.0 5.0 17.9 340
11/01/2019 13:50 5.4 41 397.3 600 0.0 5.7 20.6 331
11/01/2019 14:00 5.3 41 383.0 600 0.0 5.9 21.3 329
11/01/2019 14:10 5.3 41 366.9 600 0.0 6.8 24.6 332
11/01/2019 14:20 5.3 42 348.8 600 0.0 6.1 22.0 336
11/01/2019 14:30 5.3 43 330.8 600 0.0 7.9 28.4 332
11/01/2019 14:40 5.3 45 311.9 600 0.0 8.9 32.0 327
11/01/2019 14:50 5.1 45 292.4 600 0.0 9.8 35.2 328
11/01/2019 15:00 5.1 45 272.9 600 0.0 8.6 31.0 333
11/01/2019 15:10 5.2 45 258.3 600 0.0 7.7 27.6 336
11/01/2019 15:20 5.2 45 252.0 600 0.0 8.1 29.1 337
11/01/2019 15:30 5.2 45 228.0 600 0.0 7.7 27.5 336
11/01/2019 15:40 5.2 45 197.6 600 0.0 6.1 21.8 340
11/01/2019 15:50 5.2 45 195.4 600 0.0 6.5 23.4 339
11/01/2019 16:00 5.2 45 171.4 600 0.0 5.9 21.2 345
11/01/2019 16:10 5.1 47 133.6 600 0.0 7.6 27.2 330
11/01/2019 16:20 4.9 47 89.0 600 0.0 6.5 23.3 341
11/01/2019 16:30 4.6 49 50.3 600 0.0 5.9 21.2 331
11/01/2019 16:40 4.4 50 25.9 178 0.0 5.7 20.6 330
11/01/2019 16:50 4.1 51 0.0 0 0.0 6.0 21.5 325
11/01/2019 17:00 3.9 51 0.0 0 0.0 5.5 19.6 328
11/01/2019 17:10 3.8 52 0.0 0 0.0 5.2 18.8 327
11/01/2019 17:20 3.6 52 0.0 0 0.0 6.3 22.8 321
11/01/2019 17:30 3.6 53 0.0 0 0.0 4.3 15.3 313
11/01/2019 17:40 3.4 53 0.0 0 0.0 5.0 17.9 314
11/01/2019 17:50 3.4 53 0.0 0 0.0 4.8 17.3 312
11/01/2019 18:00 3.3 54 0.0 0 0.0 5.7 20.6 315
11/01/2019 18:10 3.1 55 0.0 0 0.0 4.8 17.2 313
11/01/2019 18:20 3.0 56 0.0 0 0.0 4.8 17.4 305
11/01/2019 18:30 2.9 57 0.0 0 0.0 4.9 17.5 307
11/01/2019 18:40 2.9 57 0.0 0 0.0 4.5 16.2 303
11/01/2019 18:50 2.8 59 0.0 0 0.0 4.5 16.1 300
11/01/2019 19:00 2.7 60 0.0 0 0.0 4.2 15.0 298
11/01/2019 19:10 2.6 61 0.0 0 0.0 3.7 13.2 303
11/01/2019 19:20 2.6 61 0.0 0 0.0 3.7 13.2 301
11/01/2019 19:30 2.6 62 0.0 0 0.0 4.4 15.8 302
11/01/2019 19:40 2.9 61 0.0 0 0.0 5.1 18.3 299
11/01/2019 19:50 2.9 62 0.0 0 0.0 4.9 17.7 303
11/01/2019 20:00 3.0 63 0.0 0 0.0 5.2 18.7 310
11/01/2019 20:10 3.1 63 0.0 0 0.0 6.1 21.8 308
11/01/2019 20:20 3.1 64 0.0 0 0.0 5.4 19.3 311
11/01/2019 20:30 3.3 63 0.0 0 0.0 5.9 21.3 307
11/01/2019 20:40 3.4 63 0.0 0 0.0 6.5 23.5 307
11/01/2019 20:50 3.1 64 0.0 0 0.0 6.4 22.9 319
11/01/2019 21:00 3.0 64 0.0 0 0.0 6.2 22.4 324
11/01/2019 21:10 2.8 65 0.0 0 0.0 6.2 22.5 321
11/01/2019 21:20 2.9 64 0.0 0 0.0 6.8 24.3 318
11/01/2019 21:30 2.9 65 0.0 0 0.0 6.5 23.3 315
11/01/2019 21:40 2.9 66 0.0 0 0.0 6.6 23.6 309
11/01/2019 21:50 3.0 65 0.0 0 0.0 6.8 24.4 308
11/01/2019 22:00 3.1 65 0.0 0 0.0 6.6 23.6 307
11/01/2019 22:10 3.1 65 0.0 0 0.0 6.6 23.7 307
11/01/2019 22:20 3.2 65 0.0 0 0.0 7.2 25.8 311
11/01/2019 22:30 3.2 65 0.0 0 0.0 7.1 25.5 310
11/01/2019 22:40 3.3 65 0.0 0 0.0 7.5 27.0 309
11/01/2019 22:50 3.4 65 0.0 0 0.0 6.7 24.0 309
11/01/2019 23:00 3.3 66 0.0 0 0.0 6.4 23.0 310
11/01/2019 23:10 3.3 66 0.0 0 0.0 6.0 21.5 310
11/01/2019 23:20 3.4 66 0.0 0 0.0 6.4 23.1 316
11/01/2019 23:30 3.4 67 0.0 0 0.0 6.1 21.9 325
11/01/2019 23:40 3.4 68 0.0 0 0.0 6.7 24.0 324
11/01/2019 23:50 3.5 68 0.0 0 0.0 7.1 25.7 324
Anterior Página 1 de 1 Siguiente

NOTA: Tipo de datos según el color:
   - Valores diarios o 10 minutos correctos
   - Valores diarios calculados a partir de un número de datos 10 minutos menor que 144 y mayor que 120, o de un número de datos semihorarios menor que 48 y mayor que 40 (caso de las estaciones de Riegos de Navarra y del MARM)
   - Valores diez minutos estimados


Contacto        Enlaces        Aviso legal